createdAt,value
2023-05-24T00:00:43.492Z,14.00
2023-05-24T00:03:11.103Z,14.10
2023-05-24T00:05:41.066Z,14.10
2023-05-24T00:08:10.361Z,14.00
2023-05-24T00:10:37.239Z,14.00
2023-05-24T00:13:04.250Z,13.80
2023-05-24T00:15:30.989Z,13.70
2023-05-24T00:17:57.852Z,13.50
2023-05-24T00:20:25.130Z,13.20
2023-05-24T00:22:52.444Z,13.20
2023-05-24T00:25:22.356Z,13.30
2023-05-24T00:27:49.101Z,13.30
2023-05-24T00:30:16.072Z,13.50
2023-05-24T00:32:42.939Z,13.50
2023-05-24T00:35:11.481Z,13.50
2023-05-24T00:37:40.143Z,13.50
2023-05-24T00:40:07.790Z,13.30
2023-05-24T00:42:37.915Z,13.20
2023-05-24T00:45:05.448Z,13.00
2023-05-24T00:47:33.752Z,13.10
2023-05-24T00:50:01.249Z,13.00
2023-05-24T00:52:28.518Z,12.90
2023-05-24T00:54:55.926Z,12.80
2023-05-24T00:57:23.915Z,12.70
2023-05-24T00:59:51.370Z,12.60
2023-05-24T01:02:21.015Z,12.70
2023-05-24T01:04:50.911Z,12.80
2023-05-24T01:07:23.658Z,12.80
2023-05-24T01:10:08.851Z,12.70
2023-05-24T01:13:00.929Z,12.40
2023-05-24T01:15:45.560Z,12.40
2023-05-24T01:18:26.243Z,12.20
2023-05-24T01:21:18.613Z,12.30
2023-05-24T01:24:02.917Z,12.30
2023-05-24T01:26:42.498Z,12.40
2023-05-24T01:29:10.770Z,12.30
2023-05-24T01:31:38.400Z,12.30
2023-05-24T01:34:06.319Z,12.40
2023-05-24T01:36:33.126Z,12.40
2023-05-24T01:38:59.979Z,12.50
2023-05-24T01:41:48.379Z,12.60
2023-05-24T01:44:40.035Z,12.60
2023-05-24T01:47:18.632Z,12.90
2023-05-24T01:49:50.674Z,12.90
2023-05-24T01:52:21.198Z,12.90
2023-05-24T01:54:59.852Z,12.80
2023-05-24T01:57:28.331Z,12.80
2023-05-24T01:59:57.137Z,12.80
2023-05-24T02:02:24.421Z,12.80
2023-05-24T02:04:52.674Z,12.70
2023-05-24T02:07:19.505Z,12.70
2023-05-24T02:09:46.322Z,12.80
2023-05-24T02:12:13.294Z,12.70
2023-05-24T02:14:42.703Z,12.70
2023-05-24T02:17:10.017Z,12.70
2023-05-24T02:19:37.192Z,12.50
2023-05-24T02:22:07.290Z,12.60
2023-05-24T02:24:34.148Z,12.60
2023-05-24T02:27:01.163Z,12.60
2023-05-24T02:29:27.965Z,12.70
2023-05-24T02:31:56.700Z,12.70
2023-05-24T02:34:24.521Z,12.70
2023-05-24T02:36:54.282Z,12.80
2023-05-24T02:39:21.453Z,12.60
2023-05-24T02:41:48.308Z,12.40
2023-05-24T02:44:15.567Z,12.40
2023-05-24T02:46:42.511Z,12.30
2023-05-24T02:49:10.454Z,12.10
2023-05-24T02:51:37.526Z,11.90
2023-05-24T02:54:04.408Z,11.70
2023-05-24T02:56:31.768Z,11.60
2023-05-24T02:59:00.892Z,11.70
2023-05-24T03:01:32.531Z,11.70
2023-05-24T03:03:59.468Z,11.70
2023-05-24T03:06:26.721Z,11.60
2023-05-24T03:08:53.601Z,11.60
2023-05-24T03:11:22.454Z,11.60
2023-05-24T03:13:49.570Z,11.50
2023-05-24T03:16:17.153Z,11.50
2023-05-24T03:18:47.436Z,11.60
2023-05-24T03:21:15.426Z,11.70
2023-05-24T03:23:42.589Z,11.60
2023-05-24T03:26:09.684Z,11.70
2023-05-24T03:28:36.780Z,11.80
2023-05-24T03:31:04.345Z,12.00
2023-05-24T03:33:32.126Z,12.20
2023-05-24T03:35:59.191Z,12.00
2023-05-24T03:38:26.303Z,12.20
2023-05-24T03:40:53.394Z,12.20
2023-05-24T03:43:20.277Z,12.20
2023-05-24T03:45:52.094Z,12.10
2023-05-24T03:48:20.959Z,12.30
2023-05-24T03:50:48.335Z,12.50
2023-05-24T03:53:16.489Z,12.50
2023-05-24T03:55:43.446Z,12.40
2023-05-24T03:58:14.313Z,12.40
2023-05-24T04:00:41.341Z,12.30
2023-05-24T04:03:09.113Z,12.30
2023-05-24T04:05:38.617Z,12.30
2023-05-24T04:08:05.404Z,12.30
2023-05-24T04:10:34.041Z,12.40
2023-05-24T04:13:00.881Z,12.40
2023-05-24T04:15:27.844Z,12.20
2023-05-24T04:17:55.685Z,12.20
2023-05-24T04:20:25.445Z,12.30
2023-05-24T04:22:52.583Z,12.30
2023-05-24T04:25:20.765Z,12.10
2023-05-24T04:27:51.046Z,12.00
2023-05-24T04:30:18.048Z,11.90
2023-05-24T04:32:44.868Z,12.00
2023-05-24T04:35:12.053Z,12.00
2023-05-24T04:37:40.505Z,11.80
2023-05-24T04:40:08.530Z,11.80
2023-05-24T04:42:35.916Z,12.10
2023-05-24T04:45:06.128Z,12.10
2023-05-24T04:47:33.116Z,11.80
2023-05-24T04:50:00.107Z,11.80
2023-05-24T04:52:27.788Z,12.00
2023-05-24T04:54:55.629Z,12.10
2023-05-24T04:57:25.679Z,12.30
2023-05-24T04:59:52.491Z,12.30
2023-05-24T05:02:22.997Z,12.20
2023-05-24T05:04:50.168Z,12.20
2023-05-24T05:07:17.567Z,12.30
2023-05-24T05:09:44.568Z,12.50
2023-05-24T05:12:16.385Z,12.50
2023-05-24T05:14:44.580Z,12.60
2023-05-24T05:17:11.389Z,12.50
2023-05-24T05:19:38.126Z,12.40
2023-05-24T05:22:11.307Z,12.40
2023-05-24T05:24:41.319Z,12.20
2023-05-24T05:27:08.129Z,12.10
2023-05-24T05:29:34.921Z,12.20
2023-05-24T05:32:01.922Z,12.20
2023-05-24T05:34:28.756Z,12.30
2023-05-24T05:36:58.643Z,12.20
2023-05-24T05:39:25.699Z,12.20
2023-05-24T05:41:53.055Z,12.10
2023-05-24T05:44:20.439Z,11.90
2023-05-24T05:46:47.186Z,11.80
2023-05-24T05:49:15.353Z,12.00
2023-05-24T05:51:42.669Z,12.20
2023-05-24T05:54:14.308Z,12.20
2023-05-24T05:56:45.501Z,12.10
2023-05-24T05:59:13.108Z,12.00
2023-05-24T06:01:41.067Z,12.10
2023-05-24T06:04:10.695Z,12.00
2023-05-24T06:06:37.610Z,11.90
2023-05-24T06:09:04.619Z,11.70
2023-05-24T06:11:31.670Z,11.50
2023-05-24T06:14:01.556Z,11.60
2023-05-24T06:16:28.743Z,11.70
2023-05-24T06:19:05.271Z,11.60
2023-05-24T06:21:33.039Z,11.80
2023-05-24T06:24:02.462Z,11.70
2023-05-24T06:26:29.859Z,11.60
2023-05-24T06:28:56.750Z,11.70
2023-05-24T06:31:23.835Z,11.90
2023-05-24T06:34:02.613Z,11.80
2023-05-24T06:36:30.081Z,11.70
2023-05-24T06:38:56.825Z,11.80
2023-05-24T06:41:23.780Z,11.80
2023-05-24T06:43:50.843Z,11.90
2023-05-24T06:46:17.626Z,11.90
2023-05-24T06:48:44.611Z,12.00
2023-05-24T06:51:11.579Z,11.90
2023-05-24T06:53:38.614Z,11.90
2023-05-24T06:56:05.716Z,11.90
2023-05-24T06:58:32.451Z,11.80
2023-05-24T07:00:59.260Z,11.90
2023-05-24T07:03:26.429Z,12.10
2023-05-24T07:05:53.213Z,12.30
2023-05-24T07:08:19.995Z,12.50
2023-05-24T07:10:46.798Z,12.60
2023-05-24T07:13:13.796Z,12.80
2023-05-24T07:15:43.597Z,13.00
2023-05-24T07:18:10.594Z,12.90
2023-05-24T07:20:37.872Z,12.80
2023-05-24T07:23:05.083Z,12.90
2023-05-24T07:25:32.687Z,13.00
2023-05-24T07:28:02.766Z,13.00
2023-05-24T07:30:32.697Z,12.90
2023-05-24T07:33:00.214Z,12.80
2023-05-24T07:35:28.648Z,12.70
2023-05-24T07:37:55.627Z,12.80
2023-05-24T07:40:23.122Z,12.70
2023-05-24T07:42:50.029Z,12.60
2023-05-24T07:45:16.982Z,12.70
2023-05-24T07:47:43.846Z,12.80
2023-05-24T07:50:11.651Z,12.90
2023-05-24T07:52:38.829Z,12.90
2023-05-24T07:55:06.573Z,12.90
2023-05-24T07:57:33.694Z,13.00
2023-05-24T08:00:07.123Z,12.70
2023-05-24T08:02:38.556Z,12.60
2023-05-24T08:05:05.947Z,12.70
2023-05-24T08:07:36.280Z,12.90
2023-05-24T08:10:03.887Z,12.90
2023-05-24T08:12:31.318Z,12.80
2023-05-24T08:14:58.348Z,12.80
2023-05-24T08:17:25.226Z,13.00
2023-05-24T08:19:52.289Z,13.10
2023-05-24T08:22:19.794Z,13.30
2023-05-24T08:24:46.578Z,13.30
2023-05-24T08:27:14.040Z,13.40
2023-05-24T08:29:41.583Z,13.50
2023-05-24T08:32:09.745Z,13.60
2023-05-24T08:34:37.592Z,13.60
2023-05-24T08:37:05.671Z,13.70
2023-05-24T08:39:32.488Z,13.70
2023-05-24T08:44:41.192Z,13.70
2023-05-24T08:47:10.403Z,13.70
2023-05-24T08:49:39.304Z,13.80
2023-05-24T08:52:07.692Z,13.90
2023-05-24T08:54:38.384Z,14.00
2023-05-24T08:57:06.747Z,14.00
2023-05-24T08:59:33.623Z,14.10
2023-05-24T09:02:02.751Z,14.20
2023-05-24T09:04:30.245Z,14.40
2023-05-24T09:06:58.503Z,14.60
2023-05-24T09:09:28.312Z,14.80
2023-05-24T09:11:59.172Z,15.00
2023-05-24T09:14:25.965Z,15.20
2023-05-24T09:16:53.096Z,15.30
2023-05-24T09:19:20.749Z,15.20
2023-05-24T09:21:49.642Z,15.30
2023-05-24T09:24:16.936Z,15.00
2023-05-24T09:26:43.719Z,14.80
2023-05-24T09:29:10.518Z,14.70
2023-05-24T09:31:39.621Z,14.80
2023-05-24T09:34:11.631Z,14.60
2023-05-24T09:36:43.040Z,14.60
2023-05-24T09:39:11.638Z,14.80
2023-05-24T09:41:39.105Z,14.90
2023-05-24T09:44:09.669Z,15.10
2023-05-24T09:46:39.370Z,15.30
2023-05-24T09:49:09.579Z,15.70
2023-05-24T09:51:39.630Z,15.80
2023-05-24T09:54:06.791Z,15.90
2023-05-24T09:56:34.773Z,16.00
2023-05-24T09:59:08.811Z,16.30
2023-05-24T10:01:36.217Z,16.50
2023-05-24T10:04:09.333Z,16.50
2023-05-24T10:06:38.344Z,16.60
2023-05-24T10:09:06.446Z,16.70
2023-05-24T10:11:36.850Z,16.90
2023-05-24T10:14:07.018Z,17.00
2023-05-24T10:16:33.881Z,16.80
2023-05-24T10:19:00.852Z,16.70
2023-05-24T10:21:29.289Z,16.50
2023-05-24T10:23:59.660Z,16.40
2023-05-24T10:26:32.070Z,16.30
2023-05-24T10:29:06.246Z,16.40
2023-05-24T10:31:36.320Z,16.70
2023-05-24T10:34:08.343Z,17.10
2023-05-24T10:36:36.906Z,17.10
2023-05-24T10:39:04.227Z,17.30
2023-05-24T10:41:40.928Z,17.40
2023-05-24T10:44:13.373Z,17.30
2023-05-24T10:47:04.369Z,17.60
2023-05-24T10:49:31.457Z,17.90
2023-05-24T10:52:07.209Z,18.00
2023-05-24T10:54:34.155Z,17.90
2023-05-24T10:57:05.217Z,18.00
2023-05-24T10:59:38.838Z,18.30
2023-05-24T11:02:16.499Z,18.60
2023-05-24T11:04:47.007Z,18.70
2023-05-24T11:07:15.377Z,18.70
2023-05-24T11:09:46.923Z,18.70
2023-05-24T11:12:16.548Z,18.60
2023-05-24T11:14:49.565Z,18.90
2023-05-24T11:17:16.888Z,19.00
2023-05-24T11:19:52.295Z,18.90
2023-05-24T11:22:29.679Z,18.70
2023-05-24T11:25:04.165Z,18.70
2023-05-24T11:27:33.148Z,18.50
2023-05-24T11:30:02.203Z,17.90
2023-05-24T11:32:29.219Z,18.00
2023-05-24T11:34:56.533Z,18.00
2023-05-24T11:37:38.496Z,18.20
2023-05-24T11:40:13.147Z,18.50
2023-05-24T11:42:41.064Z,19.00
2023-05-24T11:45:10.120Z,19.00
2023-05-24T11:47:40.263Z,19.00
2023-05-24T11:50:07.921Z,19.50
2023-05-24T11:52:40.076Z,19.60
2023-05-24T11:55:07.952Z,19.50
2023-05-24T11:57:42.956Z,19.40
2023-05-24T12:00:17.086Z,19.20
2023-05-24T12:02:44.479Z,19.00
2023-05-24T12:05:15.965Z,18.50
2023-05-24T12:08:04.305Z,18.20
2023-05-24T12:10:34.924Z,17.80
2023-05-24T12:13:07.164Z,17.60
2023-05-24T12:15:35.563Z,18.00
2023-05-24T12:18:23.792Z,18.40
2023-05-24T12:21:06.517Z,18.60
2023-05-24T12:23:39.446Z,18.80
2023-05-24T12:26:09.181Z,19.00
2023-05-24T12:28:54.526Z,18.90
2023-05-24T12:31:22.656Z,19.00
2023-05-24T12:34:07.625Z,19.40
2023-05-24T12:36:47.063Z,19.60
2023-05-24T12:39:22.474Z,19.60
2023-05-24T12:42:05.337Z,19.60
2023-05-24T12:44:35.715Z,19.80
2023-05-24T12:47:06.892Z,20.00
2023-05-24T12:49:37.183Z,20.00
2023-05-24T12:52:04.735Z,20.30
2023-05-24T12:54:32.007Z,20.50
2023-05-24T12:57:05.657Z,20.60
2023-05-24T12:59:34.122Z,20.20
2023-05-24T13:02:04.377Z,19.90
2023-05-24T13:04:33.743Z,19.90
2023-05-24T13:07:05.859Z,19.80
2023-05-24T13:09:41.489Z,19.90
2023-05-24T13:12:19.567Z,20.10
2023-05-24T13:14:52.804Z,20.30
2023-05-24T13:17:20.862Z,20.20
2023-05-24T13:19:50.456Z,20.10
2023-05-24T13:22:21.241Z,19.90
2023-05-24T13:24:51.540Z,19.90
2023-05-24T13:27:19.068Z,19.90
2023-05-24T13:29:59.699Z,19.90
2023-05-24T13:32:28.462Z,19.60
2023-05-24T13:34:55.461Z,19.70
2023-05-24T13:37:23.164Z,19.40
2023-05-24T13:39:53.720Z,19.40
2023-05-24T13:42:21.472Z,19.70
2023-05-24T13:44:48.518Z,19.90
2023-05-24T13:47:31.055Z,20.00
2023-05-24T13:50:04.058Z,19.90
2023-05-24T13:52:32.852Z,19.80
2023-05-24T13:55:04.937Z,19.80
2023-05-24T13:57:51.315Z,19.70
2023-05-24T14:00:23.301Z,19.70
2023-05-24T14:06:15.532Z,19.80
2023-05-24T14:08:42.746Z,19.60
2023-05-24T14:11:11.248Z,19.30
2023-05-24T14:16:15.057Z,18.60
2023-05-24T14:18:58.007Z,18.60
2023-05-24T14:22:02.556Z,18.70
2023-05-24T14:24:29.316Z,18.60
2023-05-24T14:26:56.009Z,18.40
2023-05-24T14:29:22.813Z,18.20
2023-05-24T14:31:49.854Z,18.00
2023-05-24T14:34:16.727Z,18.00
2023-05-24T14:36:45.319Z,18.00
2023-05-24T14:39:12.028Z,18.20
2023-05-24T14:41:38.818Z,18.40
2023-05-24T14:44:05.675Z,18.40
2023-05-24T14:46:32.499Z,18.40
2023-05-24T14:49:00.039Z,18.50
2023-05-24T14:51:26.735Z,18.80
2023-05-24T14:53:53.859Z,19.00
2023-05-24T14:56:20.528Z,18.80
2023-05-24T14:58:47.245Z,18.70
2023-05-24T15:01:14.091Z,18.70
2023-05-24T15:03:41.534Z,18.80
2023-05-24T15:06:08.589Z,18.80
2023-05-24T15:08:35.328Z,18.90
2023-05-24T15:11:02.426Z,18.90
2023-05-24T15:13:29.224Z,18.90
2023-05-24T15:16:00.553Z,18.80
2023-05-24T15:18:29.736Z,18.80
2023-05-24T15:20:56.539Z,18.90
2023-05-24T15:23:24.846Z,18.80
2023-05-24T15:25:51.599Z,19.00
2023-05-24T15:28:18.538Z,19.20
2023-05-24T15:30:46.872Z,19.40
2023-05-24T15:33:14.562Z,19.40
2023-05-24T15:35:41.523Z,19.30
2023-05-24T15:38:08.261Z,19.40
2023-05-24T15:40:34.986Z,19.10
2023-05-24T15:43:02.100Z,19.00
2023-05-24T15:45:28.845Z,19.10
2023-05-24T15:47:56.079Z,19.10
2023-05-24T15:50:35.978Z,18.90
2023-05-24T15:53:09.833Z,18.80
2023-05-24T15:55:37.207Z,18.90
2023-05-24T15:58:04.277Z,18.90
2023-05-24T16:00:31.038Z,18.80
2023-05-24T16:02:58.112Z,18.70
2023-05-24T16:05:24.923Z,18.70
2023-05-24T16:07:51.761Z,18.80
2023-05-24T16:10:18.660Z,18.70
2023-05-24T16:12:46.214Z,18.70
2023-05-24T16:15:12.942Z,18.60
2023-05-24T16:17:39.722Z,18.50
2023-05-24T16:20:07.022Z,18.50
2023-05-24T16:22:35.264Z,18.60
2023-05-24T16:25:01.932Z,18.50
2023-05-24T16:27:28.716Z,18.40
2023-05-24T16:29:55.520Z,18.30
2023-05-24T16:32:22.299Z,18.30
2023-05-24T16:34:56.732Z,18.20
2023-05-24T16:37:24.089Z,18.20
2023-05-24T16:39:51.010Z,18.20
2023-05-24T16:42:17.812Z,18.20
2023-05-24T16:44:44.510Z,18.30
2023-05-24T16:47:11.293Z,18.10
2023-05-24T16:49:38.011Z,17.90
2023-05-24T16:52:04.920Z,17.80
2023-05-24T16:54:31.605Z,17.60
2023-05-24T16:56:59.732Z,17.50
2023-05-24T16:59:26.428Z,17.50
2023-05-24T17:01:53.307Z,17.60
2023-05-24T17:04:20.212Z,17.60
2023-05-24T17:06:47.101Z,17.60
2023-05-24T17:09:14.034Z,17.60
2023-05-24T17:11:40.800Z,17.70
2023-05-24T17:14:07.501Z,17.70
2023-05-24T17:16:34.554Z,17.60
2023-05-24T17:19:01.362Z,17.60
2023-05-24T17:21:29.661Z,17.70
2023-05-24T17:23:56.750Z,17.40
2023-05-24T17:26:24.366Z,17.20
2023-05-24T17:28:51.745Z,17.00
2023-05-24T17:31:18.534Z,16.90
2023-05-24T17:33:45.304Z,16.70
2023-05-24T17:36:11.967Z,16.70
2023-05-24T17:38:39.347Z,16.50
2023-05-24T17:41:10.084Z,16.40
2023-05-24T17:43:39.091Z,16.30
2023-05-24T17:46:06.490Z,16.20
2023-05-24T17:48:37.839Z,16.20
2023-05-24T17:51:07.041Z,16.20
2023-05-24T17:53:35.137Z,16.30
2023-05-24T17:56:03.371Z,16.30
2023-05-24T17:58:30.896Z,16.10
2023-05-24T18:00:57.817Z,15.80
2023-05-24T18:03:24.592Z,15.60
2023-05-24T18:05:51.332Z,15.50
2023-05-24T18:08:18.168Z,15.50
2023-05-24T18:10:45.235Z,15.80
2023-05-24T18:13:11.990Z,15.90
2023-05-24T18:15:38.680Z,15.70
2023-05-24T18:18:05.568Z,15.60
2023-05-24T18:20:32.381Z,15.40
2023-05-24T18:22:59.251Z,15.20
2023-05-24T18:25:26.067Z,15.40
2023-05-24T18:27:52.756Z,15.30
2023-05-24T18:30:19.642Z,15.40
2023-05-24T18:33:03.585Z,15.40
2023-05-24T18:35:32.109Z,15.20
2023-05-24T18:37:59.426Z,15.00
2023-05-24T18:40:26.247Z,14.80
2023-05-24T18:42:52.965Z,14.60
2023-05-24T18:45:19.741Z,14.70
2023-05-24T18:47:46.550Z,14.60
2023-05-24T18:50:13.377Z,14.60
2023-05-24T18:52:40.323Z,14.50
2023-05-24T18:55:10.601Z,14.30
2023-05-24T18:57:37.960Z,14.20
2023-05-24T19:00:06.968Z,14.20
2023-05-24T19:02:38.864Z,14.30
2023-05-24T19:05:07.195Z,14.30
2023-05-24T19:07:35.353Z,14.10
2023-05-24T19:10:02.584Z,14.20
2023-05-24T19:12:29.963Z,14.10
2023-05-24T19:14:56.770Z,14.30
2023-05-24T19:17:25.105Z,14.10
2023-05-24T19:19:52.207Z,13.90
2023-05-24T19:22:19.131Z,13.70
2023-05-24T19:24:45.988Z,13.60
2023-05-24T19:27:13.249Z,13.30
2023-05-24T19:29:40.159Z,13.20
2023-05-24T19:32:08.180Z,13.20
2023-05-24T19:34:37.016Z,13.30
2023-05-24T19:37:04.100Z,13.40
2023-05-24T19:39:30.852Z,13.50
2023-05-24T19:41:57.599Z,13.60
2023-05-24T19:44:24.416Z,13.50
2023-05-24T19:46:51.204Z,13.40
2023-05-24T19:49:17.918Z,13.20
2023-05-24T19:51:44.601Z,13.10
2023-05-24T19:54:11.389Z,13.00
2023-05-24T19:56:38.108Z,13.10
2023-05-24T19:59:04.835Z,13.10
2023-05-24T20:01:31.705Z,12.80
2023-05-24T20:03:58.587Z,12.70
2023-05-24T20:06:26.263Z,12.70
2023-05-24T20:08:53.314Z,12.90
2023-05-24T20:11:20.160Z,13.00
2023-05-24T20:13:46.849Z,13.00
2023-05-24T20:16:13.624Z,13.00
2023-05-24T20:18:40.741Z,13.00
2023-05-24T20:21:07.417Z,13.10
2023-05-24T20:23:34.132Z,13.10
2023-05-24T20:26:01.004Z,13.10
2023-05-24T20:28:31.253Z,13.10
2023-05-24T20:30:58.830Z,13.10
2023-05-24T20:33:25.588Z,13.10
2023-05-24T20:35:54.005Z,13.10
2023-05-24T20:38:22.039Z,12.90
2023-05-24T20:40:48.828Z,12.70
2023-05-24T20:43:15.820Z,12.80
2023-05-24T20:45:42.659Z,12.90
2023-05-24T20:48:09.540Z,12.90
2023-05-24T20:50:36.393Z,12.90
2023-05-24T20:53:03.140Z,12.90
2023-05-24T20:55:31.088Z,12.80
2023-05-24T20:57:57.819Z,12.70
2023-05-24T21:00:24.563Z,12.60
2023-05-24T21:02:51.404Z,12.50
2023-05-24T21:05:18.664Z,12.60
2023-05-24T21:07:45.450Z,12.60
2023-05-24T21:10:18.998Z,12.60
2023-05-24T21:12:46.320Z,12.70
2023-05-24T21:15:13.156Z,12.60
2023-05-24T21:17:39.936Z,12.60
2023-05-24T21:20:07.473Z,12.60
2023-05-24T21:22:34.294Z,12.50
2023-05-24T21:25:01.386Z,12.50
2023-05-24T21:27:28.137Z,12.40
2023-05-24T21:29:54.898Z,12.40
2023-05-24T21:32:21.585Z,12.30
2023-05-24T21:34:49.700Z,12.30
2023-05-24T21:37:17.290Z,12.40
2023-05-24T21:39:44.291Z,12.40
2023-05-24T21:42:11.170Z,12.30
2023-05-24T21:44:38.131Z,12.20
2023-05-24T21:47:05.270Z,12.20
2023-05-24T21:49:31.934Z,12.30
2023-05-24T21:51:58.646Z,12.30
2023-05-24T21:54:25.455Z,12.30
2023-05-24T21:56:52.169Z,12.30
2023-05-24T21:59:18.892Z,12.30
2023-05-24T22:01:45.932Z,12.30
2023-05-24T22:04:12.792Z,12.20
2023-05-24T22:06:42.653Z,12.00
2023-05-24T22:09:09.667Z,12.00
2023-05-24T22:11:36.451Z,11.90
2023-05-24T22:14:03.341Z,11.70
2023-05-24T22:16:30.395Z,11.70
2023-05-24T22:18:57.170Z,11.70
2023-05-24T22:21:23.942Z,11.80
2023-05-24T22:23:51.388Z,11.80
2023-05-24T22:26:18.092Z,11.70
2023-05-24T22:28:55.021Z,11.70
2023-05-24T22:31:22.340Z,11.70
2023-05-24T22:33:49.752Z,11.60
2023-05-24T22:36:16.497Z,11.50
2023-05-24T22:38:43.979Z,11.50
2023-05-24T22:41:10.923Z,11.50
2023-05-24T22:43:37.642Z,11.50
2023-05-24T22:46:07.804Z,11.50
2023-05-24T22:48:36.899Z,11.60
2023-05-24T22:51:03.769Z,11.70
2023-05-24T22:53:30.604Z,11.60
2023-05-24T22:55:57.468Z,11.60
2023-05-24T22:58:24.704Z,11.60
2023-05-24T23:00:51.956Z,11.60
2023-05-24T23:03:18.698Z,11.50
2023-05-24T23:05:45.714Z,11.10
2023-05-24T23:08:15.368Z,11.10
2023-05-24T23:10:45.488Z,11.10
2023-05-24T23:13:17.650Z,11.20
2023-05-24T23:15:45.097Z,11.20
2023-05-24T23:18:15.763Z,11.20
2023-05-24T23:20:44.551Z,11.20
2023-05-24T23:23:12.283Z,11.10
2023-05-24T23:25:39.263Z,11.00
2023-05-24T23:28:06.023Z,10.80
2023-05-24T23:30:32.823Z,10.70
2023-05-24T23:32:59.701Z,10.70
2023-05-24T23:35:26.547Z,10.50
2023-05-24T23:37:53.797Z,10.30
2023-05-24T23:40:20.764Z,10.20
2023-05-24T23:42:47.666Z,10.10
2023-05-24T23:45:15.640Z,10.10
2023-05-24T23:47:42.430Z,10.10
2023-05-24T23:50:09.883Z,10.10
2023-05-24T23:52:36.684Z,10.30
2023-05-24T23:55:04.021Z,10.40
2023-05-24T23:57:30.875Z,10.40
2023-05-24T23:59:57.625Z,10.50
